TR-0029 weather

Niğde Airport
Bor, Niğde Province, Turkey

Public forecast

Using degrees Celsius for public forecast. Weather courtesy of forecast.io.

METAR (pilot weather report)

Closest report is Nevşehir Kapadokya Airport, 55.7 nm (103.2 km) N. Retrieved 2019/06/26 03:20 UTC (0 seconds ago):

LTAZ 260320Z 21003KT CAVOK 19/14 Q1018

TAF (pilot weather forecast)

Forecast is more than 12 hours old.

Closest forecast is Nevşehir Kapadokya Airport, 55.7 nm (103.2 km) N. Retrieved 2019/06/25 00:00 UTC (1 day ago):

TAF LTAZ 252240Z 2600/2624 VRB02KT CAVOK BECMG 2608/2611 02012KT FEW040 BECMG 2615/2618 CAVOK TEMPO 2617/2621 03020G30KT BECMG 2621/2624 VRB02KT